Gary Chicago International Airport
KGYY : rendu visible

Aérodrome :











RETROUVEZ-NOUS SUR...

 
LOGIN :

S'inscrire | Disclaimer

   EN    FR    IT 

 









Légende :    VFR   VFR Marginal   IFR   IFR Intensif   IFR Très Intensif
Visi : 
Plafond : 
>= 8 km
>= 3000ft
5 à 8 km
1000 à 3000 ft
1500m à 5 km
500 à 1000 ft
800 à 1500m
200 à 500 ft
< 800m
< 200 ft
Symboles :   Orages  Brouillard  Fortes neiges  Fortes précipitations  Vent > 20 kt






- Altitude de l'aérodrome : 591 ft
- Code IATA : GYY


KGYY - Gary Chicago International

DERNIER METAR :
  • 190145Z 26029G42KT 7SM -SN OVC026 M09/M14 A2999 RMK SNB14

METARs EXPIRÉS :
  • 190045Z 26029G41KT 7SM OVC024 M08/M13 A2996
  • 182345Z 26021G32KT 7SM OVC022 M07/M12 A2993

TAF KGYY
Valide du 19 à 00h jusqu'au 20 à 00h UTC


182327Z 1900/1924 26025G38KT 6SM -SHSN BKN015 OVC025
FM190400 27016G25KT P6SM -SHSN BKN020
FM191500 29012KT P6SM BKN020



MET'MAP, la Météo Aéronautique d'un coup d'oeil ! - Copyright ORBIFLY Décembre 2007 - Disclaimer

ORBIFLY MET'MAP TEAM :

Programmation & Développement : Alexandra Zaïnal
Sur une idée originale de : Baudouin d'Aumeries
Assistance à la programmation : Marc-Olivier Méhu
Soutien technique & logistique : Manuel Goepfert

Contact : metmap@orbifly.com




SOURCES & CREDITS :

   NOAA       Earth
Advisory